createdAt,value
2023-05-05T00:00:21.704Z,17.78
2023-05-05T00:05:23.315Z,17.92
2023-05-05T00:10:27.025Z,17.74
2023-05-05T00:15:28.508Z,17.64
2023-05-05T00:20:30.079Z,17.27
2023-05-05T00:25:31.599Z,17.16
2023-05-05T00:30:33.604Z,17.26
2023-05-05T00:35:35.202Z,17.21
2023-05-05T00:40:36.991Z,17.13
2023-05-05T00:45:39.620Z,17.01
2023-05-05T00:50:43.253Z,16.97
2023-05-05T00:55:44.766Z,17.06
2023-05-05T01:00:46.288Z,17.46
2023-05-05T01:06:06.141Z,17.12
2023-05-05T01:11:17.297Z,16.73
2023-05-05T01:16:23.631Z,16.47
2023-05-05T01:21:38.152Z,16.12
2023-05-05T01:27:19.585Z,15.66
2023-05-05T01:32:28.074Z,15.41
2023-05-05T01:37:43.335Z,15.46
2023-05-05T01:42:48.229Z,15.61
2023-05-05T01:47:52.438Z,15.85
2023-05-05T01:52:56.089Z,15.77
2023-05-05T01:57:59.395Z,15.61
2023-05-05T02:03:03.511Z,15.33
2023-05-05T02:08:06.001Z,15.12
2023-05-05T02:13:10.495Z,14.93
2023-05-05T02:18:12.992Z,14.84
2023-05-05T02:23:14.507Z,14.80
2023-05-05T02:28:21.157Z,14.90
2023-05-05T02:33:23.524Z,14.84
2023-05-05T02:38:28.608Z,14.88
2023-05-05T02:43:37.586Z,14.83
2023-05-05T02:48:39.426Z,14.93
2023-05-05T02:53:41.069Z,15.04
2023-05-05T02:58:56.883Z,15.07
2023-05-05T03:04:01.794Z,15.18
2023-05-05T03:09:12.712Z,15.30
2023-05-05T03:14:19.687Z,15.30
2023-05-05T03:19:24.308Z,15.29
2023-05-05T03:24:30.951Z,15.19
2023-05-05T03:29:38.582Z,14.96
2023-05-05T03:34:44.879Z,14.76
2023-05-05T03:39:46.555Z,14.65
2023-05-05T03:44:48.767Z,14.56
2023-05-05T03:49:50.625Z,14.46
2023-05-05T03:54:52.338Z,14.30
2023-05-05T03:59:53.914Z,14.17
2023-05-05T04:04:55.473Z,14.09
2023-05-05T04:09:57.325Z,14.11
2023-05-05T04:14:58.972Z,14.17
2023-05-05T04:20:00.617Z,14.31
2023-05-05T04:25:02.582Z,14.38
2023-05-05T04:30:04.930Z,14.59
2023-05-05T04:35:08.336Z,14.84
2023-05-05T04:40:10.384Z,15.08
2023-05-05T04:45:13.686Z,15.28
2023-05-05T04:50:16.099Z,15.44
2023-05-05T04:55:17.784Z,15.72
2023-05-05T05:00:19.409Z,15.96
2023-05-05T05:05:20.937Z,16.16
2023-05-05T05:10:22.559Z,16.47
2023-05-05T05:15:27.579Z,16.70
2023-05-05T05:20:30.721Z,16.90
2023-05-05T05:25:32.294Z,17.40
2023-05-05T05:30:34.321Z,17.55
2023-05-05T05:35:38.576Z,18.02
2023-05-05T05:40:40.845Z,18.45
2023-05-05T05:45:42.849Z,19.34
2023-05-05T05:50:44.992Z,19.24
2023-05-05T05:55:46.732Z,19.52
2023-05-05T06:00:49.181Z,18.87
2023-05-05T06:05:51.143Z,19.23
2023-05-05T06:10:53.761Z,19.22
2023-05-05T06:15:56.092Z,18.81
2023-05-05T06:20:58.255Z,19.05
2023-05-05T06:26:02.644Z,19.72
2023-05-05T06:31:04.191Z,19.89
2023-05-05T06:36:05.885Z,20.32
2023-05-05T06:41:07.525Z,20.89
2023-05-05T06:46:09.089Z,20.89
2023-05-05T06:51:10.567Z,21.28
2023-05-05T06:56:12.109Z,22.22
2023-05-05T07:01:13.668Z,23.12
2023-05-05T07:06:15.185Z,22.58
2023-05-05T07:11:16.709Z,23.40
2023-05-05T07:16:18.264Z,23.82
2023-05-05T07:21:19.854Z,23.79
2023-05-05T07:26:21.404Z,24.04
2023-05-05T07:31:23.279Z,24.72
2023-05-05T07:36:24.924Z,23.99
2023-05-05T07:41:26.596Z,24.81
2023-05-05T07:46:28.291Z,24.29
2023-05-05T07:51:29.853Z,24.43
2023-05-05T07:56:31.509Z,25.21
2023-05-05T08:01:33.102Z,25.33
2023-05-05T08:06:34.596Z,24.93
2023-05-05T08:11:36.173Z,24.89
2023-05-05T08:16:37.797Z,25.98
2023-05-05T08:21:39.295Z,26.72
2023-05-05T08:26:40.835Z,27.17
2023-05-05T08:31:42.389Z,27.26
2023-05-05T08:36:43.938Z,27.65
2023-05-05T08:41:45.470Z,27.13
2023-05-05T08:46:49.144Z,27.46
2023-05-05T08:51:52.099Z,27.33
2023-05-05T08:56:55.169Z,27.07
2023-05-05T09:01:58.389Z,26.39
2023-05-05T09:07:00.453Z,27.91
2023-05-05T09:12:02.371Z,29.14
2023-05-05T09:17:04.094Z,29.48
2023-05-05T09:22:05.704Z,29.22
2023-05-05T09:27:21.559Z,26.95
2023-05-05T09:32:23.145Z,26.98
2023-05-05T09:37:31.428Z,29.05
2023-05-05T09:42:32.961Z,28.87
2023-05-05T09:47:37.638Z,28.02
2023-05-05T09:52:39.281Z,29.64
2023-05-05T09:57:40.790Z,28.63
2023-05-05T10:02:42.431Z,28.47
2023-05-05T10:07:45.759Z,27.88
2023-05-05T10:12:48.460Z,29.99
2023-05-05T10:18:06.186Z,31.10
2023-05-05T10:23:14.971Z,30.67
2023-05-05T10:28:21.452Z,29.88
2023-05-05T10:33:32.324Z,28.69
2023-05-05T10:38:35.383Z,29.04
2023-05-05T10:43:37.407Z,29.64
2023-05-05T10:48:57.452Z,30.48
2023-05-05T10:54:07.848Z,30.36
2023-05-05T10:59:37.301Z,29.97
2023-05-05T11:04:38.803Z,29.60
2023-05-05T11:09:56.635Z,27.96
2023-05-05T11:15:24.139Z,28.13
2023-05-05T11:20:37.677Z,25.99
2023-05-05T11:25:39.123Z,24.80
2023-05-05T11:30:56.132Z,21.58
2023-05-05T11:36:00.986Z,19.68
2023-05-05T11:41:26.160Z,15.86
2023-05-05T11:46:27.700Z,15.52
2023-05-05T11:51:29.224Z,16.11
2023-05-05T11:56:30.742Z,16.88
2023-05-05T12:01:32.889Z,17.51
2023-05-05T12:06:34.453Z,17.85
2023-05-05T12:11:50.679Z,18.33
2023-05-05T12:16:58.924Z,18.45
2023-05-05T12:22:01.503Z,18.89
2023-05-05T12:27:10.651Z,19.36
2023-05-05T12:32:25.708Z,18.75
2023-05-05T12:37:27.498Z,19.40
2023-05-05T12:42:29.226Z,19.08
2023-05-05T12:47:32.538Z,18.72
2023-05-05T12:52:44.846Z,18.69
2023-05-05T12:58:02.033Z,18.75
2023-05-05T13:03:03.699Z,19.24
2023-05-05T13:08:05.355Z,18.82
2023-05-05T13:13:06.882Z,19.51
2023-05-05T13:18:08.506Z,19.99
2023-05-05T13:23:10.055Z,19.59
2023-05-05T13:28:11.574Z,19.76
2023-05-05T13:33:13.061Z,19.51
2023-05-05T13:38:14.586Z,19.75
2023-05-05T13:43:16.068Z,19.24
2023-05-05T13:48:17.560Z,19.26
2023-05-05T13:53:19.049Z,19.41
2023-05-05T13:58:20.559Z,19.29
2023-05-05T14:03:22.180Z,19.60
2023-05-05T14:08:23.735Z,19.77
2023-05-05T14:13:25.317Z,19.98
2023-05-05T14:18:26.990Z,20.08
2023-05-05T14:23:28.594Z,19.88
2023-05-05T14:28:30.130Z,19.00
2023-05-05T14:33:31.685Z,18.81
2023-05-05T14:38:33.257Z,18.67
2023-05-05T14:43:35.167Z,19.03
2023-05-05T14:48:36.753Z,19.03
2023-05-05T14:53:38.258Z,19.31
2023-05-05T14:58:39.873Z,19.25
2023-05-05T15:03:41.581Z,19.58
2023-05-05T15:08:44.422Z,20.05
2023-05-05T15:13:46.164Z,20.21
2023-05-05T15:18:47.853Z,20.18
2023-05-05T15:23:49.435Z,19.26
2023-05-05T15:28:50.920Z,18.46
2023-05-05T15:33:52.526Z,17.15
2023-05-05T15:38:55.070Z,17.07
2023-05-05T15:43:56.690Z,16.83
2023-05-05T15:48:58.187Z,16.85
2023-05-05T15:53:59.831Z,17.12
2023-05-05T15:59:01.359Z,17.53
2023-05-05T16:04:02.981Z,17.69
2023-05-05T16:09:04.747Z,18.49
2023-05-05T16:14:06.431Z,18.75
2023-05-05T16:19:07.985Z,18.27
2023-05-05T16:24:09.576Z,18.32
2023-05-05T16:29:12.083Z,18.66
2023-05-05T16:34:13.715Z,18.02
2023-05-05T16:39:15.231Z,17.76
2023-05-05T16:44:16.957Z,17.60
2023-05-05T16:49:18.659Z,17.42
2023-05-05T16:54:20.193Z,17.52
2023-05-05T16:59:21.745Z,17.36
2023-05-05T17:04:23.293Z,17.32
2023-05-05T17:09:24.856Z,17.55
2023-05-05T17:14:26.400Z,17.73
2023-05-05T17:19:27.945Z,17.81
2023-05-05T17:24:29.708Z,17.42
2023-05-05T17:29:31.337Z,17.27
2023-05-05T17:34:32.892Z,17.46
2023-05-05T17:39:34.567Z,17.61
2023-05-05T17:44:36.211Z,17.81
2023-05-05T17:49:37.809Z,17.53
2023-05-05T17:54:39.278Z,17.32
2023-05-05T17:59:40.973Z,17.38
2023-05-05T18:04:42.600Z,17.17
2023-05-05T18:09:44.294Z,16.98
2023-05-05T18:14:45.802Z,16.99
2023-05-05T18:19:49.061Z,16.90
2023-05-05T18:24:50.801Z,16.77
2023-05-05T18:29:52.657Z,16.53
2023-05-05T18:34:54.200Z,16.40
2023-05-05T18:39:56.055Z,16.15
2023-05-05T18:44:57.755Z,15.99
2023-05-05T18:49:59.258Z,15.89
2023-05-05T18:55:00.797Z,15.96
2023-05-05T19:00:02.458Z,15.82
2023-05-05T19:05:04.264Z,15.86
2023-05-05T19:10:06.567Z,15.92
2023-05-05T19:15:08.706Z,15.78
2023-05-05T19:20:10.882Z,15.72
2023-05-05T19:25:13.953Z,15.72
2023-05-05T19:30:15.547Z,15.64
2023-05-05T19:35:17.311Z,15.61
2023-05-05T19:40:18.898Z,15.59
2023-05-05T19:45:20.415Z,15.51
2023-05-05T19:50:22.204Z,15.32
2023-05-05T19:55:23.848Z,15.20
2023-05-05T20:00:25.453Z,15.16
2023-05-05T20:05:27.021Z,14.86
2023-05-05T20:10:28.582Z,14.68
2023-05-05T20:15:31.419Z,14.66
2023-05-05T20:20:34.200Z,14.68
2023-05-05T20:25:35.713Z,14.65
2023-05-05T20:30:37.226Z,14.58
2023-05-05T20:35:38.787Z,14.50
2023-05-05T20:40:40.690Z,14.36
2023-05-05T20:45:42.223Z,14.26
2023-05-05T20:50:43.786Z,14.20
2023-05-05T20:55:45.452Z,14.14
2023-05-05T21:00:47.027Z,14.07
2023-05-05T21:05:48.610Z,14.08
2023-05-05T21:10:50.162Z,14.18
2023-05-05T21:15:51.692Z,14.29
2023-05-05T21:20:53.445Z,14.17
2023-05-05T21:25:55.188Z,14.19
2023-05-05T21:31:19.621Z,14.28
2023-05-05T21:36:18.288Z,14.41
2023-05-05T21:41:19.841Z,14.43
2023-05-05T21:46:21.467Z,14.45
2023-05-05T21:51:22.982Z,14.45
2023-05-05T21:56:24.529Z,14.41
2023-05-05T22:01:26.189Z,14.32
2023-05-05T22:06:27.711Z,14.28
2023-05-05T22:11:29.230Z,14.27
2023-05-05T22:16:30.747Z,14.30
2023-05-05T22:21:32.341Z,14.26
2023-05-05T22:26:33.971Z,14.19
2023-05-05T22:31:36.260Z,14.16
2023-05-05T22:36:37.805Z,14.17
2023-05-05T22:41:39.343Z,14.19
2023-05-05T22:46:40.997Z,14.21
2023-05-05T22:51:42.604Z,14.14
2023-05-05T22:56:44.172Z,13.66
2023-05-05T23:01:45.678Z,13.43
2023-05-05T23:06:47.184Z,13.47
2023-05-05T23:11:48.677Z,13.45
2023-05-05T23:16:50.315Z,13.43
2023-05-05T23:21:53.601Z,13.35
2023-05-05T23:26:58.227Z,13.40
2023-05-05T23:31:59.736Z,13.39
2023-05-05T23:37:01.271Z,13.43
2023-05-05T23:42:02.760Z,13.48
2023-05-05T23:47:04.327Z,13.52
2023-05-05T23:52:05.847Z,13.52
2023-05-05T23:57:07.420Z,13.53
